sensor_id;sensor_type;location;lat;lon;timestamp;temperature;humidity
37678;DHT22;23517;50.390;8.616;2023-05-16T00:02:01;11.50;65.70
37678;DHT22;23517;50.390;8.616;2023-05-16T00:04:28;11.40;65.30
37678;DHT22;23517;50.390;8.616;2023-05-16T00:06:55;11.50;65.20
37678;DHT22;23517;50.390;8.616;2023-05-16T00:09:22;11.40;65.60
37678;DHT22;23517;50.390;8.616;2023-05-16T00:11:49;11.40;65.60
37678;DHT22;23517;50.390;8.616;2023-05-16T00:14:16;11.40;65.70
37678;DHT22;23517;50.390;8.616;2023-05-16T00:16:44;11.40;65.50
37678;DHT22;23517;50.390;8.616;2023-05-16T00:19:12;11.40;65.80
37678;DHT22;23517;50.390;8.616;2023-05-16T00:21:39;11.40;65.30
37678;DHT22;23517;50.390;8.616;2023-05-16T00:24:06;11.40;65.60
37678;DHT22;23517;50.390;8.616;2023-05-16T00:26:33;11.40;66.00
37678;DHT22;23517;50.390;8.616;2023-05-16T00:28:59;11.40;65.70
37678;DHT22;23517;50.390;8.616;2023-05-16T00:31:30;11.40;65.70
37678;DHT22;23517;50.390;8.616;2023-05-16T00:33:57;11.30;65.60
37678;DHT22;23517;50.390;8.616;2023-05-16T00:36:23;11.20;67.00
37678;DHT22;23517;50.390;8.616;2023-05-16T00:38:50;11.20;68.00
37678;DHT22;23517;50.390;8.616;2023-05-16T00:41:17;11.20;67.40
37678;DHT22;23517;50.390;8.616;2023-05-16T00:43:43;11.20;67.10
37678;DHT22;23517;50.390;8.616;2023-05-16T00:46:10;11.30;66.60
37678;DHT22;23517;50.390;8.616;2023-05-16T00:48:37;11.40;65.30
37678;DHT22;23517;50.390;8.616;2023-05-16T00:51:04;11.40;63.40
37678;DHT22;23517;50.390;8.616;2023-05-16T00:53:35;11.40;63.80
37678;DHT22;23517;50.390;8.616;2023-05-16T00:56:02;11.30;64.50
37678;DHT22;23517;50.390;8.616;2023-05-16T00:58:29;11.20;64.60
37678;DHT22;23517;50.390;8.616;2023-05-16T01:00:57;11.30;64.70
37678;DHT22;23517;50.390;8.616;2023-05-16T01:03:24;11.20;65.50
37678;DHT22;23517;50.390;8.616;2023-05-16T01:05:51;11.20;65.90
37678;DHT22;23517;50.390;8.616;2023-05-16T01:08:19;11.20;66.00
37678;DHT22;23517;50.390;8.616;2023-05-16T01:14:38;11.20;65.90
37678;DHT22;23517;50.390;8.616;2023-05-16T01:26:28;11.10;67.20
37678;DHT22;23517;50.390;8.616;2023-05-16T01:28:57;11.10;67.20
37678;DHT22;23517;50.390;8.616;2023-05-16T01:31:24;11.00;67.90
37678;DHT22;23517;50.390;8.616;2023-05-16T01:33:51;11.00;67.80
37678;DHT22;23517;50.390;8.616;2023-05-16T01:36:25;11.00;67.70
37678;DHT22;23517;50.390;8.616;2023-05-16T01:39:19;11.10;67.30
37678;DHT22;23517;50.390;8.616;2023-05-16T01:42:07;11.10;66.90
37678;DHT22;23517;50.390;8.616;2023-05-16T01:45:42;11.10;66.50
37678;DHT22;23517;50.390;8.616;2023-05-16T01:48:03;11.10;66.40
37678;DHT22;23517;50.390;8.616;2023-05-16T01:50:36;11.10;66.90
37678;DHT22;23517;50.390;8.616;2023-05-16T01:53:08;11.10;67.60
37678;DHT22;23517;50.390;8.616;2023-05-16T01:55:54;11.10;68.20
37678;DHT22;23517;50.390;8.616;2023-05-16T01:58:25;11.00;68.20
37678;DHT22;23517;50.390;8.616;2023-05-16T02:01:03;11.00;69.20
37678;DHT22;23517;50.390;8.616;2023-05-16T02:03:31;11.00;69.70
37678;DHT22;23517;50.390;8.616;2023-05-16T02:05:58;11.00;70.30
37678;DHT22;23517;50.390;8.616;2023-05-16T02:08:26;11.00;70.30
37678;DHT22;23517;50.390;8.616;2023-05-16T02:10:53;11.00;70.90
37678;DHT22;23517;50.390;8.616;2023-05-16T02:13:20;11.00;71.00
37678;DHT22;23517;50.390;8.616;2023-05-16T02:15:47;11.00;71.90
37678;DHT22;23517;50.390;8.616;2023-05-16T02:18:13;11.00;73.00
37678;DHT22;23517;50.390;8.616;2023-05-16T02:20:40;11.00;73.00
37678;DHT22;23517;50.390;8.616;2023-05-16T02:23:07;11.00;73.40
37678;DHT22;23517;50.390;8.616;2023-05-16T02:25:33;11.00;72.70
37678;DHT22;23517;50.390;8.616;2023-05-16T02:28:00;11.00;72.10
37678;DHT22;23517;50.390;8.616;2023-05-16T02:30:27;11.10;72.30
37678;DHT22;23517;50.390;8.616;2023-05-16T02:32:53;11.10;72.60
37678;DHT22;23517;50.390;8.616;2023-05-16T02:35:22;11.10;72.30
37678;DHT22;23517;50.390;8.616;2023-05-16T02:37:50;11.10;72.00
37678;DHT22;23517;50.390;8.616;2023-05-16T02:40:16;11.10;72.50
37678;DHT22;23517;50.390;8.616;2023-05-16T02:42:43;11.10;72.80
37678;DHT22;23517;50.390;8.616;2023-05-16T02:45:10;11.10;73.90
37678;DHT22;23517;50.390;8.616;2023-05-16T02:47:37;11.10;73.80
37678;DHT22;23517;50.390;8.616;2023-05-16T02:50:04;11.10;74.20
37678;DHT22;23517;50.390;8.616;2023-05-16T02:52:33;11.20;74.30
37678;DHT22;23517;50.390;8.616;2023-05-16T02:55:00;11.20;73.90
37678;DHT22;23517;50.390;8.616;2023-05-16T02:57:46;11.30;73.70
37678;DHT22;23517;50.390;8.616;2023-05-16T03:00:13;11.30;73.90
37678;DHT22;23517;50.390;8.616;2023-05-16T03:02:44;11.30;74.20
37678;DHT22;23517;50.390;8.616;2023-05-16T03:05:11;11.40;73.50
37678;DHT22;23517;50.390;8.616;2023-05-16T03:07:38;11.40;72.90
37678;DHT22;23517;50.390;8.616;2023-05-16T03:10:05;11.50;72.80
37678;DHT22;23517;50.390;8.616;2023-05-16T03:12:32;11.50;72.90
37678;DHT22;23517;50.390;8.616;2023-05-16T03:14:59;11.50;72.00
37678;DHT22;23517;50.390;8.616;2023-05-16T03:17:26;11.50;71.40
37678;DHT22;23517;50.390;8.616;2023-05-16T03:19:54;11.60;71.20
37678;DHT22;23517;50.390;8.616;2023-05-16T03:22:20;11.60;71.20
37678;DHT22;23517;50.390;8.616;2023-05-16T03:24:47;11.60;70.30
37678;DHT22;23517;50.390;8.616;2023-05-16T03:27:14;11.60;69.90
37678;DHT22;23517;50.390;8.616;2023-05-16T03:29:40;11.60;69.70
37678;DHT22;23517;50.390;8.616;2023-05-16T03:32:07;11.70;69.40
37678;DHT22;23517;50.390;8.616;2023-05-16T03:34:35;11.70;68.90
37678;DHT22;23517;50.390;8.616;2023-05-16T03:37:02;11.70;68.90
37678;DHT22;23517;50.390;8.616;2023-05-16T03:39:28;11.70;69.30
37678;DHT22;23517;50.390;8.616;2023-05-16T03:41:55;11.70;68.90
37678;DHT22;23517;50.390;8.616;2023-05-16T03:44:22;11.70;68.90
37678;DHT22;23517;50.390;8.616;2023-05-16T03:46:49;11.70;69.80
37678;DHT22;23517;50.390;8.616;2023-05-16T03:49:16;11.70;69.50
37678;DHT22;23517;50.390;8.616;2023-05-16T03:51:43;11.70;68.70
37678;DHT22;23517;50.390;8.616;2023-05-16T03:54:10;11.70;68.90
37678;DHT22;23517;50.390;8.616;2023-05-16T03:56:37;11.70;68.20
37678;DHT22;23517;50.390;8.616;2023-05-16T03:59:03;11.70;68.60
37678;DHT22;23517;50.390;8.616;2023-05-16T04:01:30;11.70;69.30
37678;DHT22;23517;50.390;8.616;2023-05-16T04:03:57;11.70;68.90
37678;DHT22;23517;50.390;8.616;2023-05-16T04:06:23;11.70;68.70
37678;DHT22;23517;50.390;8.616;2023-05-16T04:08:50;11.70;68.60
37678;DHT22;23517;50.390;8.616;2023-05-16T04:11:16;11.70;68.70
37678;DHT22;23517;50.390;8.616;2023-05-16T04:13:43;11.60;68.80
37678;DHT22;23517;50.390;8.616;2023-05-16T04:16:10;11.50;70.20
37678;DHT22;23517;50.390;8.616;2023-05-16T04:18:36;11.50;70.60
37678;DHT22;23517;50.390;8.616;2023-05-16T04:21:03;11.50;70.80
37678;DHT22;23517;50.390;8.616;2023-05-16T04:23:30;11.50;71.20
37678;DHT22;23517;50.390;8.616;2023-05-16T04:25:57;11.60;70.20
37678;DHT22;23517;50.390;8.616;2023-05-16T04:28:24;11.60;69.90
37678;DHT22;23517;50.390;8.616;2023-05-16T04:30:51;11.60;69.80
37678;DHT22;23517;50.390;8.616;2023-05-16T04:33:18;11.60;71.20
37678;DHT22;23517;50.390;8.616;2023-05-16T04:35:45;11.60;70.00
37678;DHT22;23517;50.390;8.616;2023-05-16T04:38:12;11.60;70.90
37678;DHT22;23517;50.390;8.616;2023-05-16T04:40:40;11.60;71.20
37678;DHT22;23517;50.390;8.616;2023-05-16T04:43:10;11.60;70.50
37678;DHT22;23517;50.390;8.616;2023-05-16T04:45:36;11.60;70.90
37678;DHT22;23517;50.390;8.616;2023-05-16T04:48:03;11.60;71.00
37678;DHT22;23517;50.390;8.616;2023-05-16T04:50:30;11.60;71.20
37678;DHT22;23517;50.390;8.616;2023-05-16T04:52:57;11.60;71.30
37678;DHT22;23517;50.390;8.616;2023-05-16T04:55:23;11.60;71.20
37678;DHT22;23517;50.390;8.616;2023-05-16T04:57:50;11.60;71.20
37678;DHT22;23517;50.390;8.616;2023-05-16T05:00:17;11.50;72.40
37678;DHT22;23517;50.390;8.616;2023-05-16T05:02:44;11.50;72.30
37678;DHT22;23517;50.390;8.616;2023-05-16T05:05:11;11.50;71.20
37678;DHT22;23517;50.390;8.616;2023-05-16T05:07:38;11.40;70.90
37678;DHT22;23517;50.390;8.616;2023-05-16T05:10:05;11.40;71.10
37678;DHT22;23517;50.390;8.616;2023-05-16T05:12:33;11.50;70.10
37678;DHT22;23517;50.390;8.616;2023-05-16T05:15:00;11.40;71.20
37678;DHT22;23517;50.390;8.616;2023-05-16T05:17:27;11.30;69.20
37678;DHT22;23517;50.390;8.616;2023-05-16T05:19:55;11.20;64.90
37678;DHT22;23517;50.390;8.616;2023-05-16T05:22:21;11.10;65.50
37678;DHT22;23517;50.390;8.616;2023-05-16T05:24:48;11.10;66.80
37678;DHT22;23517;50.390;8.616;2023-05-16T05:27:15;11.10;66.40
37678;DHT22;23517;50.390;8.616;2023-05-16T05:29:41;11.10;67.00
37678;DHT22;23517;50.390;8.616;2023-05-16T05:32:08;11.10;66.80
37678;DHT22;23517;50.390;8.616;2023-05-16T05:34:35;11.00;67.90
37678;DHT22;23517;50.390;8.616;2023-05-16T05:37:03;11.00;68.00
37678;DHT22;23517;50.390;8.616;2023-05-16T05:39:29;11.10;68.40
37678;DHT22;23517;50.390;8.616;2023-05-16T05:41:56;11.10;69.30
37678;DHT22;23517;50.390;8.616;2023-05-16T05:44:24;11.10;69.70
37678;DHT22;23517;50.390;8.616;2023-05-16T05:46:50;11.00;69.90
37678;DHT22;23517;50.390;8.616;2023-05-16T05:49:17;11.00;70.90
37678;DHT22;23517;50.390;8.616;2023-05-16T05:51:44;11.00;68.30
37678;DHT22;23517;50.390;8.616;2023-05-16T05:54:10;11.00;69.20
37678;DHT22;23517;50.390;8.616;2023-05-16T05:56:37;10.90;69.00
37678;DHT22;23517;50.390;8.616;2023-05-16T05:59:04;10.80;70.30
37678;DHT22;23517;50.390;8.616;2023-05-16T06:01:30;10.70;69.10
37678;DHT22;23517;50.390;8.616;2023-05-16T06:03:57;10.70;71.20
37678;DHT22;23517;50.390;8.616;2023-05-16T06:06:28;10.80;71.20
37678;DHT22;23517;50.390;8.616;2023-05-16T06:08:54;10.80;70.30
37678;DHT22;23517;50.390;8.616;2023-05-16T06:11:21;10.80;70.80
37678;DHT22;23517;50.390;8.616;2023-05-16T06:13:48;10.80;71.50
37678;DHT22;23517;50.390;8.616;2023-05-16T06:16:15;10.80;70.80
37678;DHT22;23517;50.390;8.616;2023-05-16T06:18:42;10.80;69.00
37678;DHT22;23517;50.390;8.616;2023-05-16T06:21:09;10.80;70.70
37678;DHT22;23517;50.390;8.616;2023-05-16T06:23:36;10.80;69.20
37678;DHT22;23517;50.390;8.616;2023-05-16T06:26:03;10.80;68.20
37678;DHT22;23517;50.390;8.616;2023-05-16T06:28:30;10.80;69.60
37678;DHT22;23517;50.390;8.616;2023-05-16T06:30:57;10.80;70.50
37678;DHT22;23517;50.390;8.616;2023-05-16T06:33:23;10.70;70.10
37678;DHT22;23517;50.390;8.616;2023-05-16T06:35:51;10.70;70.70
37678;DHT22;23517;50.390;8.616;2023-05-16T06:38:18;10.80;72.40
37678;DHT22;23517;50.390;8.616;2023-05-16T06:40:47;10.80;70.80
37678;DHT22;23517;50.390;8.616;2023-05-16T06:43:14;10.80;70.40
37678;DHT22;23517;50.390;8.616;2023-05-16T06:45:41;10.90;68.50
37678;DHT22;23517;50.390;8.616;2023-05-16T06:48:08;10.90;70.30
37678;DHT22;23517;50.390;8.616;2023-05-16T06:50:35;10.90;69.90
37678;DHT22;23517;50.390;8.616;2023-05-16T06:53:01;10.80;68.40
37678;DHT22;23517;50.390;8.616;2023-05-16T06:55:30;10.80;67.60
37678;DHT22;23517;50.390;8.616;2023-05-16T06:57:57;11.00;68.50
37678;DHT22;23517;50.390;8.616;2023-05-16T07:00:25;11.00;69.30
37678;DHT22;23517;50.390;8.616;2023-05-16T07:02:52;11.00;67.30
37678;DHT22;23517;50.390;8.616;2023-05-16T07:05:19;11.10;67.80
37678;DHT22;23517;50.390;8.616;2023-05-16T07:07:45;11.00;65.00
37678;DHT22;23517;50.390;8.616;2023-05-16T07:10:13;10.90;65.50
37678;DHT22;23517;50.390;8.616;2023-05-16T07:12:41;10.90;66.10
37678;DHT22;23517;50.390;8.616;2023-05-16T07:15:08;11.00;65.70
37678;DHT22;23517;50.390;8.616;2023-05-16T07:17:36;10.90;64.00
37678;DHT22;23517;50.390;8.616;2023-05-16T07:20:03;10.90;63.90
37678;DHT22;23517;50.390;8.616;2023-05-16T07:22:31;10.90;62.70
37678;DHT22;23517;50.390;8.616;2023-05-16T07:24:58;10.80;62.20
37678;DHT22;23517;50.390;8.616;2023-05-16T07:27:27;10.80;61.90
37678;DHT22;23517;50.390;8.616;2023-05-16T07:29:53;10.70;65.20
37678;DHT22;23517;50.390;8.616;2023-05-16T07:32:20;10.70;62.90
37678;DHT22;23517;50.390;8.616;2023-05-16T07:34:47;10.70;63.50
37678;DHT22;23517;50.390;8.616;2023-05-16T07:37:14;10.80;63.30
37678;DHT22;23517;50.390;8.616;2023-05-16T07:39:41;10.70;65.00
37678;DHT22;23517;50.390;8.616;2023-05-16T07:42:08;10.70;64.50
37678;DHT22;23517;50.390;8.616;2023-05-16T07:44:35;10.80;64.00
37678;DHT22;23517;50.390;8.616;2023-05-16T07:47:02;10.80;62.90
37678;DHT22;23517;50.390;8.616;2023-05-16T07:49:28;10.90;63.50
37678;DHT22;23517;50.390;8.616;2023-05-16T07:51:55;10.90;62.00
37678;DHT22;23517;50.390;8.616;2023-05-16T07:54:22;10.80;62.30
37678;DHT22;23517;50.390;8.616;2023-05-16T07:56:48;10.90;61.30
37678;DHT22;23517;50.390;8.616;2023-05-16T07:59:15;11.00;60.50
37678;DHT22;23517;50.390;8.616;2023-05-16T08:01:42;11.10;61.00
37678;DHT22;23517;50.390;8.616;2023-05-16T08:04:10;11.20;59.70
37678;DHT22;23517;50.390;8.616;2023-05-16T08:06:36;11.20;58.90
37678;DHT22;23517;50.390;8.616;2023-05-16T08:09:03;11.40;58.50
37678;DHT22;23517;50.390;8.616;2023-05-16T08:11:30;11.40;58.40
37678;DHT22;23517;50.390;8.616;2023-05-16T08:13:56;11.30;57.30
37678;DHT22;23517;50.390;8.616;2023-05-16T08:16:23;11.20;55.60
37678;DHT22;23517;50.390;8.616;2023-05-16T08:18:50;11.20;57.10
37678;DHT22;23517;50.390;8.616;2023-05-16T08:21:16;11.20;58.20
37678;DHT22;23517;50.390;8.616;2023-05-16T08:23:43;11.30;55.80
37678;DHT22;23517;50.390;8.616;2023-05-16T08:26:10;11.40;56.40
37678;DHT22;23517;50.390;8.616;2023-05-16T08:28:37;11.60;54.30
37678;DHT22;23517;50.390;8.616;2023-05-16T08:31:03;11.70;54.90
37678;DHT22;23517;50.390;8.616;2023-05-16T08:33:30;12.00;53.50
37678;DHT22;23517;50.390;8.616;2023-05-16T08:35:57;11.60;52.60
37678;DHT22;23517;50.390;8.616;2023-05-16T08:38:24;11.70;53.30
37678;DHT22;23517;50.390;8.616;2023-05-16T08:40:51;11.80;52.60
37678;DHT22;23517;50.390;8.616;2023-05-16T08:43:18;11.90;53.30
37678;DHT22;23517;50.390;8.616;2023-05-16T08:45:44;11.90;52.00
37678;DHT22;23517;50.390;8.616;2023-05-16T08:48:11;11.80;51.70
37678;DHT22;23517;50.390;8.616;2023-05-16T08:50:40;11.90;51.30
37678;DHT22;23517;50.390;8.616;2023-05-16T08:53:08;11.80;50.30
37678;DHT22;23517;50.390;8.616;2023-05-16T08:55:39;11.80;49.70
37678;DHT22;23517;50.390;8.616;2023-05-16T08:58:06;11.80;50.20
37678;DHT22;23517;50.390;8.616;2023-05-16T09:00:34;11.90;51.90
37678;DHT22;23517;50.390;8.616;2023-05-16T09:03:01;12.20;49.60
37678;DHT22;23517;50.390;8.616;2023-05-16T09:05:28;12.30;49.50
37678;DHT22;23517;50.390;8.616;2023-05-16T09:07:56;12.30;48.10
37678;DHT22;23517;50.390;8.616;2023-05-16T09:10:22;12.50;47.70
37678;DHT22;23517;50.390;8.616;2023-05-16T09:12:49;12.70;47.10
37678;DHT22;23517;50.390;8.616;2023-05-16T09:15:17;13.20;45.50
37678;DHT22;23517;50.390;8.616;2023-05-16T09:17:46;13.20;44.90
37678;DHT22;23517;50.390;8.616;2023-05-16T09:20:18;13.10;45.50
37678;DHT22;23517;50.390;8.616;2023-05-16T09:22:56;13.20;45.50
37678;DHT22;23517;50.390;8.616;2023-05-16T09:25:28;13.10;44.10
37678;DHT22;23517;50.390;8.616;2023-05-16T09:27:59;12.70;43.90
37678;DHT22;23517;50.390;8.616;2023-05-16T09:30:32;12.70;46.00
37678;DHT22;23517;50.390;8.616;2023-05-16T09:33:00;13.00;44.20
37678;DHT22;23517;50.390;8.616;2023-05-16T09:35:27;13.30;41.00
37678;DHT22;23517;50.390;8.616;2023-05-16T09:37:57;13.20;39.20
37678;DHT22;23517;50.390;8.616;2023-05-16T09:40:24;13.00;41.20
37678;DHT22;23517;50.390;8.616;2023-05-16T09:43:05;13.00;42.10
37678;DHT22;23517;50.390;8.616;2023-05-16T09:45:33;13.20;41.70
37678;DHT22;23517;50.390;8.616;2023-05-16T09:48:04;13.30;38.60
37678;DHT22;23517;50.390;8.616;2023-05-16T09:50:34;13.30;38.80
37678;DHT22;23517;50.390;8.616;2023-05-16T09:53:02;13.70;38.40
37678;DHT22;23517;50.390;8.616;2023-05-16T09:55:29;14.10;37.10
37678;DHT22;23517;50.390;8.616;2023-05-16T09:57:57;14.50;33.10
37678;DHT22;23517;50.390;8.616;2023-05-16T10:00:31;14.70;34.40
37678;DHT22;23517;50.390;8.616;2023-05-16T10:03:00;14.80;32.70
37678;DHT22;23517;50.390;8.616;2023-05-16T10:05:32;14.80;33.50
37678;DHT22;23517;50.390;8.616;2023-05-16T10:08:02;14.70;32.30
37678;DHT22;23517;50.390;8.616;2023-05-16T10:10:30;14.80;32.30
37678;DHT22;23517;50.390;8.616;2023-05-16T10:13:01;14.60;31.30
37678;DHT22;23517;50.390;8.616;2023-05-16T10:15:31;14.50;32.90
37678;DHT22;23517;50.390;8.616;2023-05-16T10:17:58;14.50;31.40
37678;DHT22;23517;50.390;8.616;2023-05-16T10:20:26;14.60;31.10
37678;DHT22;23517;50.390;8.616;2023-05-16T10:22:54;14.50;29.10
37678;DHT22;23517;50.390;8.616;2023-05-16T10:25:26;14.60;28.50
37678;DHT22;23517;50.390;8.616;2023-05-16T10:27:56;14.80;28.10
37678;DHT22;23517;50.390;8.616;2023-05-16T10:30:24;15.00;27.80
37678;DHT22;23517;50.390;8.616;2023-05-16T10:32:52;15.30;27.80
37678;DHT22;23517;50.390;8.616;2023-05-16T10:35:19;15.30;26.90
37678;DHT22;23517;50.390;8.616;2023-05-16T10:37:48;14.90;26.00
37678;DHT22;23517;50.390;8.616;2023-05-16T10:40:16;14.60;27.20
37678;DHT22;23517;50.390;8.616;2023-05-16T10:42:57;14.50;28.90
37678;DHT22;23517;50.390;8.616;2023-05-16T10:45:24;14.70;28.00
37678;DHT22;23517;50.390;8.616;2023-05-16T10:47:55;14.40;26.60
37678;DHT22;23517;50.390;8.616;2023-05-16T10:50:42;14.80;26.80
37678;DHT22;23517;50.390;8.616;2023-05-16T10:56:07;14.80;27.30
37678;DHT22;23517;50.390;8.616;2023-05-16T11:01:23;15.20;26.30
37678;DHT22;23517;50.390;8.616;2023-05-16T11:19:51;15.20;23.40
37678;DHT22;23517;50.390;8.616;2023-05-16T11:22:28;15.20;22.70
37678;DHT22;23517;50.390;8.616;2023-05-16T11:27:28;15.00;21.80
37678;DHT22;23517;50.390;8.616;2023-05-16T11:32:38;14.80;24.20
37678;DHT22;23517;50.390;8.616;2023-05-16T11:35:09;14.80;25.00
37678;DHT22;23517;50.390;8.616;2023-05-16T11:37:40;14.90;25.00
37678;DHT22;23517;50.390;8.616;2023-05-16T11:40:08;14.80;23.00
37678;DHT22;23517;50.390;8.616;2023-05-16T11:42:40;14.70;23.80
37678;DHT22;23517;50.390;8.616;2023-05-16T11:47:47;14.50;23.00
37678;DHT22;23517;50.390;8.616;2023-05-16T11:50:17;14.60;24.20
37678;DHT22;23517;50.390;8.616;2023-05-16T11:52:51;14.60;23.70
37678;DHT22;23517;50.390;8.616;2023-05-16T11:55:21;14.70;25.00
37678;DHT22;23517;50.390;8.616;2023-05-16T11:58:07;15.00;23.60
37678;DHT22;23517;50.390;8.616;2023-05-16T12:00:34;15.00;22.20
37678;DHT22;23517;50.390;8.616;2023-05-16T12:03:02;15.00;22.20
37678;DHT22;23517;50.390;8.616;2023-05-16T12:05:30;14.70;20.20
37678;DHT22;23517;50.390;8.616;2023-05-16T12:07:58;14.70;20.00
37678;DHT22;23517;50.390;8.616;2023-05-16T12:10:25;14.70;19.90
37678;DHT22;23517;50.390;8.616;2023-05-16T12:12:54;14.40;21.50
37678;DHT22;23517;50.390;8.616;2023-05-16T12:15:21;14.40;22.50
37678;DHT22;23517;50.390;8.616;2023-05-16T12:17:49;14.30;20.00
37678;DHT22;23517;50.390;8.616;2023-05-16T12:20:16;14.40;20.00
37678;DHT22;23517;50.390;8.616;2023-05-16T12:22:44;14.40;20.10
37678;DHT22;23517;50.390;8.616;2023-05-16T12:25:31;14.50;21.60
37678;DHT22;23517;50.390;8.616;2023-05-16T12:28:03;14.70;21.10
37678;DHT22;23517;50.390;8.616;2023-05-16T12:30:33;15.00;20.50
37678;DHT22;23517;50.390;8.616;2023-05-16T12:33:01;15.10;19.60
37678;DHT22;23517;50.390;8.616;2023-05-16T12:35:36;14.90;21.10
37678;DHT22;23517;50.390;8.616;2023-05-16T12:38:04;15.00;20.40
37678;DHT22;23517;50.390;8.616;2023-05-16T12:40:31;15.20;19.70
37678;DHT22;23517;50.390;8.616;2023-05-16T12:42:58;15.10;19.60
37678;DHT22;23517;50.390;8.616;2023-05-16T12:45:26;15.10;19.90
37678;DHT22;23517;50.390;8.616;2023-05-16T12:47:53;15.10;19.10
37678;DHT22;23517;50.390;8.616;2023-05-16T12:50:20;15.20;18.60
37678;DHT22;23517;50.390;8.616;2023-05-16T12:52:53;15.10;18.90
37678;DHT22;23517;50.390;8.616;2023-05-16T12:55:24;15.00;20.40
37678;DHT22;23517;50.390;8.616;2023-05-16T12:57:54;14.80;19.00
37678;DHT22;23517;50.390;8.616;2023-05-16T13:00:21;14.80;19.20
37678;DHT22;23517;50.390;8.616;2023-05-16T13:02:49;14.80;20.00
37678;DHT22;23517;50.390;8.616;2023-05-16T13:05:16;14.90;19.20
37678;DHT22;23517;50.390;8.616;2023-05-16T13:07:43;15.10;19.50
37678;DHT22;23517;50.390;8.616;2023-05-16T13:10:10;15.20;19.50
37678;DHT22;23517;50.390;8.616;2023-05-16T13:12:39;15.30;18.50
37678;DHT22;23517;50.390;8.616;2023-05-16T13:15:07;15.10;17.70
37678;DHT22;23517;50.390;8.616;2023-05-16T13:17:36;14.90;18.70
37678;DHT22;23517;50.390;8.616;2023-05-16T13:20:04;15.00;19.20
37678;DHT22;23517;50.390;8.616;2023-05-16T13:22:35;15.20;20.20
37678;DHT22;23517;50.390;8.616;2023-05-16T13:25:03;15.20;18.80
37678;DHT22;23517;50.390;8.616;2023-05-16T13:27:31;15.30;18.40
37678;DHT22;23517;50.390;8.616;2023-05-16T13:29:59;15.60;18.60
37678;DHT22;23517;50.390;8.616;2023-05-16T13:32:26;15.60;18.00
37678;DHT22;23517;50.390;8.616;2023-05-16T13:34:53;15.60;17.80
37678;DHT22;23517;50.390;8.616;2023-05-16T13:37:19;15.60;17.90
37678;DHT22;23517;50.390;8.616;2023-05-16T13:39:46;15.50;18.40
37678;DHT22;23517;50.390;8.616;2023-05-16T13:42:13;15.40;18.00
37678;DHT22;23517;50.390;8.616;2023-05-16T13:44:39;15.30;17.90
37678;DHT22;23517;50.390;8.616;2023-05-16T13:47:07;15.40;18.70
37678;DHT22;23517;50.390;8.616;2023-05-16T13:49:34;15.50;18.80
37678;DHT22;23517;50.390;8.616;2023-05-16T13:52:01;15.20;18.30
37678;DHT22;23517;50.390;8.616;2023-05-16T13:54:28;14.90;18.40
37678;DHT22;23517;50.390;8.616;2023-05-16T13:56:55;14.80;18.70
37678;DHT22;23517;50.390;8.616;2023-05-16T13:59:22;14.90;18.80
37678;DHT22;23517;50.390;8.616;2023-05-16T14:02:09;14.90;17.90
37678;DHT22;23517;50.390;8.616;2023-05-16T14:04:36;14.80;18.20
37678;DHT22;23517;50.390;8.616;2023-05-16T14:07:02;15.00;18.90
37678;DHT22;23517;50.390;8.616;2023-05-16T14:09:29;15.10;18.60
37678;DHT22;23517;50.390;8.616;2023-05-16T14:11:57;15.20;18.20
37678;DHT22;23517;50.390;8.616;2023-05-16T14:14:23;15.40;18.00
37678;DHT22;23517;50.390;8.616;2023-05-16T14:16:50;15.20;18.10
37678;DHT22;23517;50.390;8.616;2023-05-16T14:19:17;15.10;18.40
37678;DHT22;23517;50.390;8.616;2023-05-16T14:21:45;14.90;17.70
37678;DHT22;23517;50.390;8.616;2023-05-16T14:24:11;15.10;18.50
37678;DHT22;23517;50.390;8.616;2023-05-16T14:26:38;15.50;17.90
37678;DHT22;23517;50.390;8.616;2023-05-16T14:29:05;16.00;16.80
37678;DHT22;23517;50.390;8.616;2023-05-16T14:31:31;16.10;16.10
37678;DHT22;23517;50.390;8.616;2023-05-16T14:33:58;15.80;15.50
37678;DHT22;23517;50.390;8.616;2023-05-16T14:36:25;15.50;16.70
37678;DHT22;23517;50.390;8.616;2023-05-16T14:38:51;15.40;17.40
37678;DHT22;23517;50.390;8.616;2023-05-16T14:41:18;15.10;16.60
37678;DHT22;23517;50.390;8.616;2023-05-16T14:43:45;14.90;17.10
37678;DHT22;23517;50.390;8.616;2023-05-16T14:46:11;14.70;17.00
37678;DHT22;23517;50.390;8.616;2023-05-16T14:48:38;14.50;17.70
37678;DHT22;23517;50.390;8.616;2023-05-16T14:51:05;14.30;17.80
37678;DHT22;23517;50.390;8.616;2023-05-16T14:53:32;14.20;18.10
37678;DHT22;23517;50.390;8.616;2023-05-16T14:55:59;14.30;17.90
37678;DHT22;23517;50.390;8.616;2023-05-16T14:58:28;14.40;17.40
37678;DHT22;23517;50.390;8.616;2023-05-16T15:00:56;14.30;17.10
37678;DHT22;23517;50.390;8.616;2023-05-16T15:03:22;14.20;16.80
37678;DHT22;23517;50.390;8.616;2023-05-16T15:05:49;14.20;17.50
37678;DHT22;23517;50.390;8.616;2023-05-16T15:08:16;14.30;18.30
37678;DHT22;23517;50.390;8.616;2023-05-16T15:10:43;14.40;18.40
37678;DHT22;23517;50.390;8.616;2023-05-16T15:13:10;14.30;18.40
37678;DHT22;23517;50.390;8.616;2023-05-16T15:15:36;14.40;17.60
37678;DHT22;23517;50.390;8.616;2023-05-16T15:18:04;14.20;17.00
37678;DHT22;23517;50.390;8.616;2023-05-16T15:20:31;14.20;19.00
37678;DHT22;23517;50.390;8.616;2023-05-16T15:22:58;14.20;19.40
37678;DHT22;23517;50.390;8.616;2023-05-16T15:25:26;14.30;18.30
37678;DHT22;23517;50.390;8.616;2023-05-16T15:27:54;14.30;18.80
37678;DHT22;23517;50.390;8.616;2023-05-16T15:30:21;14.60;18.40
37678;DHT22;23517;50.390;8.616;2023-05-16T15:32:47;14.90;18.30
37678;DHT22;23517;50.390;8.616;2023-05-16T15:35:14;15.30;17.90
37678;DHT22;23517;50.390;8.616;2023-05-16T15:37:41;15.50;16.90
37678;DHT22;23517;50.390;8.616;2023-05-16T15:40:10;15.70;16.30
37678;DHT22;23517;50.390;8.616;2023-05-16T15:42:37;15.90;15.50
37678;DHT22;23517;50.390;8.616;2023-05-16T15:45:04;16.10;16.60
37678;DHT22;23517;50.390;8.616;2023-05-16T15:47:31;16.30;15.20
37678;DHT22;23517;50.390;8.616;2023-05-16T15:49:58;16.50;15.40
37678;DHT22;23517;50.390;8.616;2023-05-16T15:52:24;16.50;15.50
37678;DHT22;23517;50.390;8.616;2023-05-16T15:54:51;16.60;15.00
37678;DHT22;23517;50.390;8.616;2023-05-16T15:57:18;16.50;15.80
37678;DHT22;23517;50.390;8.616;2023-05-16T15:59:44;16.50;16.40
37678;DHT22;23517;50.390;8.616;2023-05-16T16:02:11;16.20;16.20
37678;DHT22;23517;50.390;8.616;2023-05-16T16:04:39;16.00;17.20
37678;DHT22;23517;50.390;8.616;2023-05-16T16:07:05;15.80;17.30
37678;DHT22;23517;50.390;8.616;2023-05-16T16:09:32;15.60;17.50
37678;DHT22;23517;50.390;8.616;2023-05-16T16:11:59;15.40;17.20
37678;DHT22;23517;50.390;8.616;2023-05-16T16:14:25;15.20;17.90
37678;DHT22;23517;50.390;8.616;2023-05-16T16:16:52;15.10;18.10
37678;DHT22;23517;50.390;8.616;2023-05-16T16:19:20;14.80;18.40